sensor_id;sensor_type;location;lat;lon;timestamp;P1;durP1;ratioP1;P2;durP2;ratioP2
55216;SDS011;41086;46.736;15.666;2024-03-08T00:00:11;18.42;;;9.57;;
55216;SDS011;41086;46.736;15.666;2024-03-08T00:02:42;18.08;;;10.23;;
55216;SDS011;41086;46.736;15.666;2024-03-08T00:05:09;21.20;;;9.25;;
55216;SDS011;41086;46.736;15.666;2024-03-08T00:07:40;19.00;;;10.13;;
55216;SDS011;41086;46.736;15.666;2024-03-08T00:10:09;17.45;;;10.25;;
55216;SDS011;41086;46.736;15.666;2024-03-08T00:12:42;18.73;;;10.63;;
55216;SDS011;41086;46.736;15.666;2024-03-08T00:15:14;18.38;;;10.77;;
55216;SDS011;41086;46.736;15.666;2024-03-08T00:17:45;21.50;;;10.30;;
55216;SDS011;41086;46.736;15.666;2024-03-08T00:20:13;18.17;;;10.48;;
55216;SDS011;41086;46.736;15.666;2024-03-08T00:22:40;20.75;;;10.98;;
55216;SDS011;41086;46.736;15.666;2024-03-08T00:25:07;21.60;;;11.63;;
55216;SDS011;41086;46.736;15.666;2024-03-08T00:27:38;21.27;;;11.38;;
55216;SDS011;41086;46.736;15.666;2024-03-08T00:30:05;20.05;;;10.60;;
55216;SDS011;41086;46.736;15.666;2024-03-08T00:32:33;19.55;;;11.35;;
55216;SDS011;41086;46.736;15.666;2024-03-08T00:35:00;18.80;;;10.88;;
55216;SDS011;41086;46.736;15.666;2024-03-08T00:39:54;21.52;;;9.73;;
55216;SDS011;41086;46.736;15.666;2024-03-08T00:42:21;15.20;;;8.90;;
55216;SDS011;41086;46.736;15.666;2024-03-08T00:44:48;13.43;;;7.30;;
55216;SDS011;41086;46.736;15.666;2024-03-08T00:47:17;16.95;;;9.02;;
55216;SDS011;41086;46.736;15.666;2024-03-08T00:49:44;17.80;;;8.80;;
55216;SDS011;41086;46.736;15.666;2024-03-08T00:52:11;18.15;;;10.30;;
55216;SDS011;41086;46.736;15.666;2024-03-08T00:54:38;17.17;;;9.73;;
55216;SDS011;41086;46.736;15.666;2024-03-08T00:57:05;15.65;;;9.75;;
55216;SDS011;41086;46.736;15.666;2024-03-08T00:59:33;25.48;;;10.93;;
55216;SDS011;41086;46.736;15.666;2024-03-08T01:02:01;16.15;;;7.25;;
55216;SDS011;41086;46.736;15.666;2024-03-08T01:04:28;12.45;;;7.43;;
55216;SDS011;41086;46.736;15.666;2024-03-08T01:06:56;17.65;;;8.60;;
55216;SDS011;41086;46.736;15.666;2024-03-08T01:09:23;18.63;;;10.80;;
55216;SDS011;41086;46.736;15.666;2024-03-08T01:11:50;21.27;;;9.68;;
55216;SDS011;41086;46.736;15.666;2024-03-08T01:14:17;18.33;;;10.43;;
55216;SDS011;41086;46.736;15.666;2024-03-08T01:16:44;14.00;;;8.95;;
55216;SDS011;41086;46.736;15.666;2024-03-08T01:19:11;16.33;;;9.52;;
55216;SDS011;41086;46.736;15.666;2024-03-08T01:21:38;14.70;;;8.50;;
55216;SDS011;41086;46.736;15.666;2024-03-08T01:24:04;14.80;;;8.82;;
55216;SDS011;41086;46.736;15.666;2024-03-08T01:26:32;13.82;;;8.40;;
55216;SDS011;41086;46.736;15.666;2024-03-08T01:29:01;14.13;;;7.70;;
55216;SDS011;41086;46.736;15.666;2024-03-08T01:31:31;21.42;;;8.65;;
55216;SDS011;41086;46.736;15.666;2024-03-08T01:33:59;16.50;;;8.52;;
55216;SDS011;41086;46.736;15.666;2024-03-08T01:38:53;16.67;;;10.13;;
55216;SDS011;41086;46.736;15.666;2024-03-08T01:41:20;16.88;;;10.00;;
55216;SDS011;41086;46.736;15.666;2024-03-08T01:43:47;15.50;;;8.38;;
55216;SDS011;41086;46.736;15.666;2024-03-08T01:46:15;17.15;;;8.95;;
55216;SDS011;41086;46.736;15.666;2024-03-08T01:48:45;15.93;;;8.45;;
55216;SDS011;41086;46.736;15.666;2024-03-08T01:51:12;15.70;;;8.73;;
55216;SDS011;41086;46.736;15.666;2024-03-08T01:53:42;18.35;;;8.32;;
55216;SDS011;41086;46.736;15.666;2024-03-08T01:56:12;19.83;;;9.65;;
55216;SDS011;41086;46.736;15.666;2024-03-08T01:58:41;20.35;;;9.75;;
55216;SDS011;41086;46.736;15.666;2024-03-08T02:01:11;24.17;;;10.35;;
55216;SDS011;41086;46.736;15.666;2024-03-08T02:03:39;17.10;;;9.85;;
55216;SDS011;41086;46.736;15.666;2024-03-08T02:06:06;17.45;;;9.70;;
55216;SDS011;41086;46.736;15.666;2024-03-08T02:08:36;23.58;;;11.23;;
55216;SDS011;41086;46.736;15.666;2024-03-08T02:11:04;18.20;;;9.82;;
55216;SDS011;41086;46.736;15.666;2024-03-08T02:13:31;18.48;;;10.15;;
55216;SDS011;41086;46.736;15.666;2024-03-08T02:15:59;20.98;;;10.23;;
55216;SDS011;41086;46.736;15.666;2024-03-08T02:18:27;14.65;;;9.50;;
55216;SDS011;41086;46.736;15.666;2024-03-08T02:20:56;20.48;;;9.80;;
55216;SDS011;41086;46.736;15.666;2024-03-08T02:23:25;25.52;;;13.43;;
55216;SDS011;41086;46.736;15.666;2024-03-08T02:25:53;24.40;;;12.63;;
55216;SDS011;41086;46.736;15.666;2024-03-08T02:28:20;21.60;;;12.82;;
55216;SDS011;41086;46.736;15.666;2024-03-08T02:30:47;25.55;;;12.60;;
55216;SDS011;41086;46.736;15.666;2024-03-08T02:33:15;20.48;;;10.82;;
55216;SDS011;41086;46.736;15.666;2024-03-08T02:35:46;18.58;;;10.43;;
55216;SDS011;41086;46.736;15.666;2024-03-08T02:38:14;22.58;;;10.60;;
55216;SDS011;41086;46.736;15.666;2024-03-08T02:40:45;23.50;;;11.25;;
55216;SDS011;41086;46.736;15.666;2024-03-08T02:43:14;20.40;;;11.57;;
55216;SDS011;41086;46.736;15.666;2024-03-08T02:45:42;21.55;;;12.13;;
55216;SDS011;41086;46.736;15.666;2024-03-08T02:48:08;20.67;;;10.52;;
55216;SDS011;41086;46.736;15.666;2024-03-08T02:50:36;22.83;;;10.77;;
55216;SDS011;41086;46.736;15.666;2024-03-08T02:53:03;21.00;;;10.55;;
55216;SDS011;41086;46.736;15.666;2024-03-08T02:55:30;19.35;;;10.15;;
55216;SDS011;41086;46.736;15.666;2024-03-08T02:57:57;20.45;;;10.98;;
55216;SDS011;41086;46.736;15.666;2024-03-08T03:00:25;21.35;;;11.50;;
55216;SDS011;41086;46.736;15.666;2024-03-08T03:02:53;26.20;;;12.13;;
55216;SDS011;41086;46.736;15.666;2024-03-08T03:05:23;21.73;;;11.48;;
55216;SDS011;41086;46.736;15.666;2024-03-08T03:07:50;21.23;;;10.55;;
55216;SDS011;41086;46.736;15.666;2024-03-08T03:10:18;20.55;;;10.82;;
55216;SDS011;41086;46.736;15.666;2024-03-08T03:15:12;21.27;;;11.15;;
55216;SDS011;41086;46.736;15.666;2024-03-08T03:17:40;29.13;;;12.23;;
55216;SDS011;41086;46.736;15.666;2024-03-08T03:20:07;25.17;;;12.18;;
55216;SDS011;41086;46.736;15.666;2024-03-08T03:22:40;24.88;;;12.98;;
55216;SDS011;41086;46.736;15.666;2024-03-08T03:25:07;24.35;;;11.98;;
55216;SDS011;41086;46.736;15.666;2024-03-08T03:27:36;29.02;;;13.18;;
55216;SDS011;41086;46.736;15.666;2024-03-08T03:30:03;20.95;;;11.10;;
55216;SDS011;41086;46.736;15.666;2024-03-08T03:32:50;21.05;;;11.25;;
55216;SDS011;41086;46.736;15.666;2024-03-08T03:35:18;25.23;;;11.40;;
55216;SDS011;41086;46.736;15.666;2024-03-08T03:37:47;20.02;;;10.60;;
55216;SDS011;41086;46.736;15.666;2024-03-08T03:40:35;20.17;;;10.75;;
55216;SDS011;41086;46.736;15.666;2024-03-08T03:43:03;18.23;;;10.75;;
55216;SDS011;41086;46.736;15.666;2024-03-08T03:45:30;22.25;;;11.70;;
55216;SDS011;41086;46.736;15.666;2024-03-08T03:48:03;23.85;;;11.32;;
55216;SDS011;41086;46.736;15.666;2024-03-08T03:50:33;26.92;;;12.05;;
55216;SDS011;41086;46.736;15.666;2024-03-08T03:53:02;23.73;;;11.07;;
55216;SDS011;41086;46.736;15.666;2024-03-08T03:55:30;24.08;;;12.98;;
55216;SDS011;41086;46.736;15.666;2024-03-08T03:57:56;23.67;;;12.23;;
55216;SDS011;41086;46.736;15.666;2024-03-08T04:00:26;29.50;;;11.98;;
55216;SDS011;41086;46.736;15.666;2024-03-08T04:02:54;25.85;;;12.43;;
55216;SDS011;41086;46.736;15.666;2024-03-08T04:05:21;25.70;;;12.63;;
55216;SDS011;41086;46.736;15.666;2024-03-08T04:07:48;27.88;;;11.70;;
55216;SDS011;41086;46.736;15.666;2024-03-08T04:10:15;24.15;;;12.68;;
55216;SDS011;41086;46.736;15.666;2024-03-08T04:12:42;26.30;;;11.52;;
55216;SDS011;41086;46.736;15.666;2024-03-08T04:15:09;27.48;;;10.23;;
55216;SDS011;41086;46.736;15.666;2024-03-08T04:17:37;21.33;;;10.38;;
55216;SDS011;41086;46.736;15.666;2024-03-08T04:20:05;27.00;;;9.48;;
55216;SDS011;41086;46.736;15.666;2024-03-08T04:22:41;21.40;;;9.68;;
55216;SDS011;41086;46.736;15.666;2024-03-08T04:25:09;19.95;;;10.05;;
55216;SDS011;41086;46.736;15.666;2024-03-08T04:27:36;17.48;;;10.15;;
55216;SDS011;41086;46.736;15.666;2024-03-08T04:30:03;22.15;;;9.38;;
55216;SDS011;41086;46.736;15.666;2024-03-08T04:32:30;31.23;;;10.23;;
55216;SDS011;41086;46.736;15.666;2024-03-08T04:34:59;19.33;;;9.38;;
55216;SDS011;41086;46.736;15.666;2024-03-08T04:37:28;17.30;;;8.10;;
55216;SDS011;41086;46.736;15.666;2024-03-08T04:39:58;20.90;;;9.73;;
55216;SDS011;41086;46.736;15.666;2024-03-08T04:42:26;22.50;;;9.85;;
55216;SDS011;41086;46.736;15.666;2024-03-08T04:44:56;15.55;;;8.40;;
55216;SDS011;41086;46.736;15.666;2024-03-08T04:47:24;17.70;;;8.52;;
55216;SDS011;41086;46.736;15.666;2024-03-08T04:49:51;32.72;;;9.75;;
55216;SDS011;41086;46.736;15.666;2024-03-08T04:52:18;31.23;;;8.95;;
55216;SDS011;41086;46.736;15.666;2024-03-08T04:54:45;65.35;;;12.75;;
55216;SDS011;41086;46.736;15.666;2024-03-08T04:57:12;102.28;;;14.77;;
55216;SDS011;41086;46.736;15.666;2024-03-08T04:59:39;93.75;;;15.88;;
55216;SDS011;41086;46.736;15.666;2024-03-08T05:04:33;223.50;;;19.98;;
55216;SDS011;41086;46.736;15.666;2024-03-08T05:07:03;227.27;;;23.92;;
55216;SDS011;41086;46.736;15.666;2024-03-08T05:09:30;177.77;;;20.23;;
55216;SDS011;41086;46.736;15.666;2024-03-08T05:11:58;180.73;;;18.25;;
55216;SDS011;41086;46.736;15.666;2024-03-08T05:14:25;250.63;;;26.95;;
55216;SDS011;41086;46.736;15.666;2024-03-08T05:16:52;226.50;;;23.83;;
55216;SDS011;41086;46.736;15.666;2024-03-08T05:19:19;196.88;;;22.77;;
55216;SDS011;41086;46.736;15.666;2024-03-08T05:21:50;147.20;;;18.58;;
55216;SDS011;41086;46.736;15.666;2024-03-08T05:24:17;224.60;;;25.00;;
55216;SDS011;41086;46.736;15.666;2024-03-08T05:26:45;336.95;;;36.50;;
55216;SDS011;41086;46.736;15.666;2024-03-08T05:29:13;203.85;;;20.77;;
55216;SDS011;41086;46.736;15.666;2024-03-08T05:31:48;370.98;;;39.00;;
55216;SDS011;41086;46.736;15.666;2024-03-08T05:34:16;109.45;;;17.95;;
55216;SDS011;41086;46.736;15.666;2024-03-08T05:36:45;206.00;;;24.17;;
55216;SDS011;41086;46.736;15.666;2024-03-08T05:39:17;227.90;;;21.02;;
55216;SDS011;41086;46.736;15.666;2024-03-08T05:41:45;145.90;;;21.33;;
55216;SDS011;41086;46.736;15.666;2024-03-08T05:44:12;224.75;;;22.38;;
55216;SDS011;41086;46.736;15.666;2024-03-08T05:46:40;197.10;;;23.83;;
55216;SDS011;41086;46.736;15.666;2024-03-08T05:49:07;164.07;;;23.10;;
55216;SDS011;41086;46.736;15.666;2024-03-08T05:51:37;107.90;;;15.52;;
55216;SDS011;41086;46.736;15.666;2024-03-08T05:54:08;116.40;;;18.75;;
55216;SDS011;41086;46.736;15.666;2024-03-08T05:56:42;180.18;;;20.48;;
55216;SDS011;41086;46.736;15.666;2024-03-08T05:59:11;178.07;;;21.75;;
55216;SDS011;41086;46.736;15.666;2024-03-08T06:01:38;229.32;;;20.30;;
55216;SDS011;41086;46.736;15.666;2024-03-08T06:04:08;136.95;;;18.98;;
55216;SDS011;41086;46.736;15.666;2024-03-08T06:06:38;220.73;;;23.58;;
55216;SDS011;41086;46.736;15.666;2024-03-08T06:09:05;206.25;;;24.83;;
55216;SDS011;41086;46.736;15.666;2024-03-08T06:11:44;212.35;;;24.80;;
55216;SDS011;41086;46.736;15.666;2024-03-08T06:14:11;220.30;;;28.08;;
55216;SDS011;41086;46.736;15.666;2024-03-08T06:16:38;209.75;;;23.38;;
55216;SDS011;41086;46.736;15.666;2024-03-08T06:19:05;218.40;;;24.50;;
55216;SDS011;41086;46.736;15.666;2024-03-08T06:24:00;174.30;;;23.45;;
55216;SDS011;41086;46.736;15.666;2024-03-08T06:28:57;251.90;;;30.67;;
55216;SDS011;41086;46.736;15.666;2024-03-08T06:31:24;75.50;;;16.40;;
55216;SDS011;41086;46.736;15.666;2024-03-08T06:33:52;31.58;;;14.25;;
55216;SDS011;41086;46.736;15.666;2024-03-08T06:36:23;27.00;;;12.65;;
55216;SDS011;41086;46.736;15.666;2024-03-08T06:38:51;40.33;;;17.13;;
55216;SDS011;41086;46.736;15.666;2024-03-08T06:41:20;53.70;;;18.75;;
55216;SDS011;41086;46.736;15.666;2024-03-08T06:43:48;35.60;;;13.55;;
55216;SDS011;41086;46.736;15.666;2024-03-08T06:46:19;33.78;;;14.73;;
55216;SDS011;41086;46.736;15.666;2024-03-08T06:48:48;19.08;;;10.20;;
55216;SDS011;41086;46.736;15.666;2024-03-08T06:51:17;30.65;;;12.10;;
55216;SDS011;41086;46.736;15.666;2024-03-08T06:53:46;18.73;;;9.77;;
55216;SDS011;41086;46.736;15.666;2024-03-08T06:56:14;23.83;;;11.43;;
55216;SDS011;41086;46.736;15.666;2024-03-08T06:58:42;22.35;;;9.80;;
55216;SDS011;41086;46.736;15.666;2024-03-08T07:01:10;24.23;;;12.73;;
55216;SDS011;41086;46.736;15.666;2024-03-08T07:03:41;10.65;;;6.25;;
55216;SDS011;41086;46.736;15.666;2024-03-08T07:06:11;24.83;;;9.90;;
55216;SDS011;41086;46.736;15.666;2024-03-08T07:08:38;19.33;;;10.75;;
55216;SDS011;41086;46.736;15.666;2024-03-08T07:11:06;25.40;;;13.85;;
55216;SDS011;41086;46.736;15.666;2024-03-08T07:13:34;39.63;;;17.67;;
55216;SDS011;41086;46.736;15.666;2024-03-08T07:16:01;38.58;;;16.92;;
55216;SDS011;41086;46.736;15.666;2024-03-08T07:18:28;31.92;;;16.77;;
55216;SDS011;41086;46.736;15.666;2024-03-08T07:20:57;26.48;;;15.23;;
55216;SDS011;41086;46.736;15.666;2024-03-08T07:23:24;27.70;;;14.95;;
55216;SDS011;41086;46.736;15.666;2024-03-08T07:26:10;34.10;;;16.50;;
55216;SDS011;41086;46.736;15.666;2024-03-08T07:28:36;25.73;;;13.55;;
55216;SDS011;41086;46.736;15.666;2024-03-08T07:31:03;29.58;;;14.30;;
55216;SDS011;41086;46.736;15.666;2024-03-08T07:33:49;26.98;;;14.85;;
55216;SDS011;41086;46.736;15.666;2024-03-08T07:36:17;27.33;;;14.57;;
55216;SDS011;41086;46.736;15.666;2024-03-08T07:38:44;32.08;;;15.43;;
55216;SDS011;41086;46.736;15.666;2024-03-08T07:41:14;24.38;;;14.25;;
55216;SDS011;41086;46.736;15.666;2024-03-08T07:43:42;29.50;;;16.20;;
55216;SDS011;41086;46.736;15.666;2024-03-08T07:46:09;28.42;;;15.38;;
55216;SDS011;41086;46.736;15.666;2024-03-08T07:51:03;29.20;;;15.65;;
55216;SDS011;41086;46.736;15.666;2024-03-08T07:53:30;32.10;;;15.85;;
55216;SDS011;41086;46.736;15.666;2024-03-08T07:55:57;30.42;;;16.33;;
55216;SDS011;41086;46.736;15.666;2024-03-08T07:58:24;35.08;;;17.40;;
55216;SDS011;41086;46.736;15.666;2024-03-08T08:00:51;29.83;;;14.30;;
55216;SDS011;41086;46.736;15.666;2024-03-08T08:03:18;32.53;;;19.02;;
55216;SDS011;41086;46.736;15.666;2024-03-08T08:05:47;35.08;;;17.75;;
55216;SDS011;41086;46.736;15.666;2024-03-08T08:08:15;32.92;;;16.45;;
55216;SDS011;41086;46.736;15.666;2024-03-08T08:10:42;33.65;;;18.52;;
55216;SDS011;41086;46.736;15.666;2024-03-08T08:13:09;35.50;;;17.08;;
55216;SDS011;41086;46.736;15.666;2024-03-08T08:15:36;26.33;;;15.13;;
55216;SDS011;41086;46.736;15.666;2024-03-08T08:18:03;30.20;;;15.55;;
55216;SDS011;41086;46.736;15.666;2024-03-08T08:20:33;27.27;;;15.55;;
55216;SDS011;41086;46.736;15.666;2024-03-08T08:23:00;27.48;;;15.52;;
55216;SDS011;41086;46.736;15.666;2024-03-08T08:25:26;23.80;;;13.70;;
55216;SDS011;41086;46.736;15.666;2024-03-08T08:27:53;22.40;;;12.82;;
55216;SDS011;41086;46.736;15.666;2024-03-08T08:30:20;24.63;;;12.40;;
55216;SDS011;41086;46.736;15.666;2024-03-08T08:32:47;24.65;;;14.05;;
55216;SDS011;41086;46.736;15.666;2024-03-08T08:35:15;27.15;;;15.63;;
55216;SDS011;41086;46.736;15.666;2024-03-08T08:40:10;24.80;;;14.13;;
55216;SDS011;41086;46.736;15.666;2024-03-08T08:42:43;23.88;;;13.07;;
55216;SDS011;41086;46.736;15.666;2024-03-08T08:45:10;25.73;;;14.70;;
55216;SDS011;41086;46.736;15.666;2024-03-08T08:47:43;25.80;;;13.95;;
55216;SDS011;41086;46.736;15.666;2024-03-08T08:50:12;22.80;;;12.95;;
55216;SDS011;41086;46.736;15.666;2024-03-08T08:52:40;28.52;;;16.00;;
55216;SDS011;41086;46.736;15.666;2024-03-08T08:55:07;24.52;;;13.85;;
55216;SDS011;41086;46.736;15.666;2024-03-08T08:57:34;20.88;;;12.13;;
55216;SDS011;41086;46.736;15.666;2024-03-08T09:00:02;24.73;;;13.63;;
55216;SDS011;41086;46.736;15.666;2024-03-08T09:02:34;24.60;;;14.20;;
55216;SDS011;41086;46.736;15.666;2024-03-08T09:05:01;24.27;;;13.82;;
55216;SDS011;41086;46.736;15.666;2024-03-08T09:07:29;20.65;;;12.20;;
55216;SDS011;41086;46.736;15.666;2024-03-08T09:09:56;23.58;;;12.55;;
55216;SDS011;41086;46.736;15.666;2024-03-08T09:12:25;24.38;;;13.70;;
55216;SDS011;41086;46.736;15.666;2024-03-08T09:14:52;21.52;;;11.80;;
55216;SDS011;41086;46.736;15.666;2024-03-08T09:17:19;27.15;;;14.52;;
55216;SDS011;41086;46.736;15.666;2024-03-08T09:19:49;22.98;;;13.65;;
55216;SDS011;41086;46.736;15.666;2024-03-08T09:22:16;23.27;;;12.50;;
55216;SDS011;41086;46.736;15.666;2024-03-08T09:24:44;24.05;;;13.68;;
55216;SDS011;41086;46.736;15.666;2024-03-08T09:27:12;25.92;;;15.18;;
55216;SDS011;41086;46.736;15.666;2024-03-08T09:29:40;21.52;;;11.15;;
55216;SDS011;41086;46.736;15.666;2024-03-08T09:32:07;23.25;;;12.80;;
55216;SDS011;41086;46.736;15.666;2024-03-08T09:34:34;26.52;;;15.48;;
55216;SDS011;41086;46.736;15.666;2024-03-08T09:37:04;23.75;;;13.77;;
55216;SDS011;41086;46.736;15.666;2024-03-08T09:39:31;33.35;;;15.45;;
55216;SDS011;41086;46.736;15.666;2024-03-08T09:42:00;28.13;;;14.63;;
55216;SDS011;41086;46.736;15.666;2024-03-08T09:44:28;26.13;;;15.40;;
55216;SDS011;41086;46.736;15.666;2024-03-08T09:47:00;22.15;;;13.45;;
55216;SDS011;41086;46.736;15.666;2024-03-08T09:49:28;22.88;;;13.98;;
55216;SDS011;41086;46.736;15.666;2024-03-08T09:51:55;22.27;;;13.80;;
55216;SDS011;41086;46.736;15.666;2024-03-08T09:54:23;24.98;;;14.48;;
55216;SDS011;41086;46.736;15.666;2024-03-08T09:56:51;26.45;;;14.95;;
55216;SDS011;41086;46.736;15.666;2024-03-08T09:59:19;23.35;;;13.60;;
55216;SDS011;41086;46.736;15.666;2024-03-08T10:02:13;23.92;;;13.65;;
55216;SDS011;41086;46.736;15.666;2024-03-08T10:04:42;25.92;;;14.65;;
55216;SDS011;41086;46.736;15.666;2024-03-08T10:07:10;25.10;;;14.20;;
55216;SDS011;41086;46.736;15.666;2024-03-08T10:09:37;23.88;;;14.27;;
55216;SDS011;41086;46.736;15.666;2024-03-08T10:14:31;22.92;;;13.07;;
55216;SDS011;41086;46.736;15.666;2024-03-08T10:16:58;22.98;;;13.45;;
55216;SDS011;41086;46.736;15.666;2024-03-08T10:19:27;23.65;;;13.27;;
55216;SDS011;41086;46.736;15.666;2024-03-08T10:21:56;21.58;;;14.10;;
55216;SDS011;41086;46.736;15.666;2024-03-08T10:24:25;22.38;;;13.07;;
55216;SDS011;41086;46.736;15.666;2024-03-08T10:26:53;23.55;;;13.35;;
55216;SDS011;41086;46.736;15.666;2024-03-08T10:29:20;20.80;;;14.02;;
55216;SDS011;41086;46.736;15.666;2024-03-08T10:31:47;22.58;;;14.00;;
55216;SDS011;41086;46.736;15.666;2024-03-08T10:34:14;21.95;;;12.57;;
55216;SDS011;41086;46.736;15.666;2024-03-08T10:36:41;24.38;;;14.55;;
55216;SDS011;41086;46.736;15.666;2024-03-08T10:39:41;21.27;;;14.00;;
55216;SDS011;41086;46.736;15.666;2024-03-08T10:42:02;22.52;;;14.27;;
55216;SDS011;41086;46.736;15.666;2024-03-08T10:49:45;25.00;;;15.00;;
55216;SDS011;41086;46.736;15.666;2024-03-08T10:52:16;22.63;;;11.23;;
55216;SDS011;41086;46.736;15.666;2024-03-08T10:54:45;24.27;;;14.65;;
55216;SDS011;41086;46.736;15.666;2024-03-08T10:57:14;20.75;;;13.23;;
55216;SDS011;41086;46.736;15.666;2024-03-08T10:59:45;22.45;;;13.93;;
55216;SDS011;41086;46.736;15.666;2024-03-08T11:02:13;20.50;;;13.32;;
55216;SDS011;41086;46.736;15.666;2024-03-08T11:04:45;21.02;;;12.55;;
55216;SDS011;41086;46.736;15.666;2024-03-08T11:07:13;20.30;;;12.82;;
55216;SDS011;41086;46.736;15.666;2024-03-08T11:09:44;22.90;;;13.95;;
55216;SDS011;41086;46.736;15.666;2024-03-08T11:12:18;20.90;;;13.23;;
55216;SDS011;41086;46.736;15.666;2024-03-08T11:14:48;23.02;;;13.68;;
55216;SDS011;41086;46.736;15.666;2024-03-08T11:19:57;21.77;;;13.52;;
55216;SDS011;41086;46.736;15.666;2024-03-08T11:22:32;21.02;;;12.63;;
55216;SDS011;41086;46.736;15.666;2024-03-08T11:25:03;19.45;;;13.18;;
55216;SDS011;41086;46.736;15.666;2024-03-08T11:27:37;21.98;;;12.98;;
55216;SDS011;41086;46.736;15.666;2024-03-08T11:30:07;19.38;;;12.60;;
55216;SDS011;41086;46.736;15.666;2024-03-08T11:32:44;20.10;;;11.77;;
55216;SDS011;41086;46.736;15.666;2024-03-08T11:35:21;18.05;;;10.90;;
55216;SDS011;41086;46.736;15.666;2024-03-08T11:37:51;22.80;;;13.55;;
55216;SDS011;41086;46.736;15.666;2024-03-08T11:40:18;22.20;;;12.90;;
55216;SDS011;41086;46.736;15.666;2024-03-08T11:42:47;21.45;;;13.93;;
55216;SDS011;41086;46.736;15.666;2024-03-08T11:45:15;20.75;;;12.80;;
55216;SDS011;41086;46.736;15.666;2024-03-08T11:47:44;21.58;;;12.65;;
55216;SDS011;41086;46.736;15.666;2024-03-08T11:50:16;19.40;;;11.52;;
55216;SDS011;41086;46.736;15.666;2024-03-08T11:52:46;30.98;;;14.45;;
55216;SDS011;41086;46.736;15.666;2024-03-08T11:55:13;25.55;;;14.68;;
55216;SDS011;41086;46.736;15.666;2024-03-08T11:57:40;20.88;;;12.73;;
55216;SDS011;41086;46.736;15.666;2024-03-08T12:00:15;20.20;;;12.40;;
55216;SDS011;41086;46.736;15.666;2024-03-08T12:03:02;21.60;;;13.55;;
55216;SDS011;41086;46.736;15.666;2024-03-08T12:05:33;20.35;;;13.05;;
55216;SDS011;41086;46.736;15.666;2024-03-08T12:10:28;21.92;;;12.77;;
55216;SDS011;41086;46.736;15.666;2024-03-08T12:12:58;21.58;;;13.77;;
55216;SDS011;41086;46.736;15.666;2024-03-08T12:15:29;18.58;;;11.45;;
55216;SDS011;41086;46.736;15.666;2024-03-08T12:17:59;23.20;;;13.63;;
55216;SDS011;41086;46.736;15.666;2024-03-08T12:20:28;21.58;;;13.95;;
55216;SDS011;41086;46.736;15.666;2024-03-08T12:22:58;22.80;;;13.95;;
55216;SDS011;41086;46.736;15.666;2024-03-08T12:25:27;21.80;;;13.25;;
55216;SDS011;41086;46.736;15.666;2024-03-08T12:28:06;22.38;;;12.23;;
55216;SDS011;41086;46.736;15.666;2024-03-08T12:30:44;21.13;;;12.90;;
55216;SDS011;41086;46.736;15.666;2024-03-08T12:33:13;23.50;;;14.90;;
55216;SDS011;41086;46.736;15.666;2024-03-08T12:35:40;23.02;;;15.40;;
55216;SDS011;41086;46.736;15.666;2024-03-08T12:38:08;23.52;;;14.10;;
55216;SDS011;41086;46.736;15.666;2024-03-08T12:40:35;24.75;;;14.10;;
55216;SDS011;41086;46.736;15.666;2024-03-08T12:43:07;27.70;;;16.25;;
55216;SDS011;41086;46.736;15.666;2024-03-08T12:45:34;20.58;;;12.88;;
55216;SDS011;41086;46.736;15.666;2024-03-08T12:48:01;23.95;;;13.75;;
55216;SDS011;41086;46.736;15.666;2024-03-08T12:50:29;20.20;;;11.40;;
55216;SDS011;41086;46.736;15.666;2024-03-08T12:52:56;26.25;;;15.20;;
55216;SDS011;41086;46.736;15.666;2024-03-08T12:55:23;23.02;;;11.68;;
55216;SDS011;41086;46.736;15.666;2024-03-08T12:57:50;24.77;;;13.98;;
55216;SDS011;41086;46.736;15.666;2024-03-08T13:00:19;24.02;;;14.27;;
55216;SDS011;41086;46.736;15.666;2024-03-08T13:02:46;27.67;;;15.82;;
55216;SDS011;41086;46.736;15.666;2024-03-08T13:05:13;27.77;;;15.95;;
55216;SDS011;41086;46.736;15.666;2024-03-08T13:07:41;28.55;;;15.98;;
55216;SDS011;41086;46.736;15.666;2024-03-08T13:10:13;27.17;;;16.15;;
55216;SDS011;41086;46.736;15.666;2024-03-08T13:12:43;27.83;;;16.08;;
55216;SDS011;41086;46.736;15.666;2024-03-08T13:15:10;25.50;;;14.82;;
55216;SDS011;41086;46.736;15.666;2024-03-08T13:17:41;24.95;;;14.15;;
55216;SDS011;41086;46.736;15.666;2024-03-08T13:22:45;27.92;;;16.30;;
55216;SDS011;41086;46.736;15.666;2024-03-08T13:25:13;27.67;;;15.68;;
55216;SDS011;41086;46.736;15.666;2024-03-08T13:27:41;24.95;;;13.90;;
55216;SDS011;41086;46.736;15.666;2024-03-08T13:30:09;25.65;;;15.48;;
55216;SDS011;41086;46.736;15.666;2024-03-08T13:32:40;27.02;;;14.38;;
55216;SDS011;41086;46.736;15.666;2024-03-08T13:35:12;26.58;;;15.90;;
55216;SDS011;41086;46.736;15.666;2024-03-08T13:37:40;27.20;;;14.77;;
55216;SDS011;41086;46.736;15.666;2024-03-08T13:40:07;29.92;;;15.77;;
55216;SDS011;41086;46.736;15.666;2024-03-08T13:42:40;31.13;;;17.40;;
55216;SDS011;41086;46.736;15.666;2024-03-08T13:45:07;27.52;;;16.55;;
55216;SDS011;41086;46.736;15.666;2024-03-08T13:47:39;32.63;;;18.83;;
55216;SDS011;41086;46.736;15.666;2024-03-08T13:50:06;29.35;;;17.45;;
55216;SDS011;41086;46.736;15.666;2024-03-08T13:52:38;35.20;;;17.60;;
55216;SDS011;41086;46.736;15.666;2024-03-08T13:55:06;29.30;;;16.50;;
55216;SDS011;41086;46.736;15.666;2024-03-08T13:57:34;36.03;;;16.65;;
55216;SDS011;41086;46.736;15.666;2024-03-08T14:00:01;28.27;;;16.67;;
55216;SDS011;41086;46.736;15.666;2024-03-08T14:02:27;28.50;;;15.95;;
55216;SDS011;41086;46.736;15.666;2024-03-08T14:04:55;45.70;;;25.58;;
55216;SDS011;41086;46.736;15.666;2024-03-08T14:07:22;31.73;;;16.40;;
55216;SDS011;41086;46.736;15.666;2024-03-08T14:09:49;29.13;;;15.80;;
55216;SDS011;41086;46.736;15.666;2024-03-08T14:12:19;30.95;;;15.55;;
55216;SDS011;41086;46.736;15.666;2024-03-08T14:14:48;26.75;;;16.25;;
55216;SDS011;41086;46.736;15.666;2024-03-08T14:17:14;30.98;;;17.38;;
55216;SDS011;41086;46.736;15.666;2024-03-08T14:19:44;28.60;;;13.98;;
55216;SDS011;41086;46.736;15.666;2024-03-08T14:22:11;29.40;;;16.15;;
55216;SDS011;41086;46.736;15.666;2024-03-08T14:24:41;30.00;;;17.45;;
55216;SDS011;41086;46.736;15.666;2024-03-08T14:27:09;26.83;;;12.18;;
55216;SDS011;41086;46.736;15.666;2024-03-08T14:29:36;33.50;;;17.60;;
55216;SDS011;41086;46.736;15.666;2024-03-08T14:32:03;23.95;;;10.77;;
55216;SDS011;41086;46.736;15.666;2024-03-08T14:34:32;28.27;;;16.50;;
55216;SDS011;41086;46.736;15.666;2024-03-08T14:37:00;35.15;;;19.27;;
55216;SDS011;41086;46.736;15.666;2024-03-08T14:39:31;36.78;;;19.77;;
55216;SDS011;41086;46.736;15.666;2024-03-08T14:42:00;32.22;;;15.88;;
55216;SDS011;41086;46.736;15.666;2024-03-08T14:44:26;31.33;;;16.08;;
55216;SDS011;41086;46.736;15.666;2024-03-08T14:46:55;32.92;;;17.98;;
55216;SDS011;41086;46.736;15.666;2024-03-08T14:49:25;38.60;;;21.02;;
55216;SDS011;41086;46.736;15.666;2024-03-08T14:51:55;29.85;;;15.38;;